Stoneville, South Dakota
Current Conditions -  °F | °C
As of 5:58 PM on Tuesday 27 Jan 2015 (Local Time) from KRCA Reporting Station
Clear Clear  
Wind Chill: 13°   Ceiling: Unl
Heat Index: 13°   Visibility: 10mi
Dew Point: -1°   Wind: 0mph
Humidity: 39%   Direction: NA
Pressure: 29.84"   Gusts: NA
Location:  44.653°N, 102.847°W
Report Text: KRCA 280058Z 00000KT 10SM CLR 13/M01 A2984 RMK AO2A SLP109 T01261012 $
Loading
Personal Weather Stations






























Interactive Weather Map New forecast layout! Learn more

10-Day Weather Forecast

Advertisements
Track Severe Weather on mobile